sensor_id;sensor_type;location;lat;lon;timestamp;temperature;humidity
35343;DHT22;21449;48.146;11.594;2022-09-03T00:02:20;13.50;99.90
35343;DHT22;21449;48.146;11.594;2022-09-03T00:06:29;13.50;99.90
35343;DHT22;21449;48.146;11.594;2022-09-03T00:10:38;13.40;99.90
35343;DHT22;21449;48.146;11.594;2022-09-03T00:14:46;13.40;99.90
35343;DHT22;21449;48.146;11.594;2022-09-03T00:18:57;13.40;99.90
35343;DHT22;21449;48.146;11.594;2022-09-03T00:23:04;13.50;99.90
35343;DHT22;21449;48.146;11.594;2022-09-03T00:27:13;13.50;99.90
35343;DHT22;21449;48.146;11.594;2022-09-03T00:31:19;13.50;99.90
35343;DHT22;21449;48.146;11.594;2022-09-03T00:35:27;13.40;99.90
35343;DHT22;21449;48.146;11.594;2022-09-03T00:39:31;13.40;99.90
35343;DHT22;21449;48.146;11.594;2022-09-03T00:43:50;13.30;99.90
35343;DHT22;21449;48.146;11.594;2022-09-03T00:48:02;13.20;99.90
35343;DHT22;21449;48.146;11.594;2022-09-03T00:52:17;13.10;99.90
35343;DHT22;21449;48.146;11.594;2022-09-03T00:56:30;13.00;99.90
35343;DHT22;21449;48.146;11.594;2022-09-03T01:00:38;12.90;99.90
35343;DHT22;21449;48.146;11.594;2022-09-03T01:04:51;12.80;99.90
35343;DHT22;21449;48.146;11.594;2022-09-03T01:09:08;12.70;99.90
35343;DHT22;21449;48.146;11.594;2022-09-03T01:13:18;12.60;99.90
35343;DHT22;21449;48.146;11.594;2022-09-03T01:17:31;12.60;99.90
35343;DHT22;21449;48.146;11.594;2022-09-03T01:21:47;12.60;99.90
35343;DHT22;21449;48.146;11.594;2022-09-03T01:26:05;12.70;99.90
35343;DHT22;21449;48.146;11.594;2022-09-03T01:30:18;12.70;99.90
35343;DHT22;21449;48.146;11.594;2022-09-03T01:34:28;12.60;99.90
35343;DHT22;21449;48.146;11.594;2022-09-03T01:38:38;12.60;99.90
35343;DHT22;21449;48.146;11.594;2022-09-03T01:42:57;12.70;99.90
35343;DHT22;21449;48.146;11.594;2022-09-03T01:47:13;12.70;99.90
35343;DHT22;21449;48.146;11.594;2022-09-03T01:51:20;12.80;99.90
35343;DHT22;21449;48.146;11.594;2022-09-03T01:55:30;12.80;99.90
35343;DHT22;21449;48.146;11.594;2022-09-03T01:59:39;12.90;99.90
35343;DHT22;21449;48.146;11.594;2022-09-03T02:03:46;12.90;99.90
35343;DHT22;21449;48.146;11.594;2022-09-03T02:07:50;12.80;99.90
35343;DHT22;21449;48.146;11.594;2022-09-03T02:11:57;12.80;99.90
35343;DHT22;21449;48.146;11.594;2022-09-03T02:16:09;12.90;99.90
35343;DHT22;21449;48.146;11.594;2022-09-03T02:20:18;12.70;99.90
35343;DHT22;21449;48.146;11.594;2022-09-03T02:24:21;12.40;99.90
35343;DHT22;21449;48.146;11.594;2022-09-03T02:28:25;12.30;99.90
35343;DHT22;21449;48.146;11.594;2022-09-03T02:32:28;12.20;99.90
35343;DHT22;21449;48.146;11.594;2022-09-03T02:36:36;12.00;99.90
35343;DHT22;21449;48.146;11.594;2022-09-03T02:40:39;12.00;99.90
35343;DHT22;21449;48.146;11.594;2022-09-03T02:44:45;11.90;99.90
35343;DHT22;21449;48.146;11.594;2022-09-03T02:48:48;11.90;99.90
35343;DHT22;21449;48.146;11.594;2022-09-03T02:52:53;11.90;99.90
35343;DHT22;21449;48.146;11.594;2022-09-03T02:56:55;11.80;99.90
35343;DHT22;21449;48.146;11.594;2022-09-03T03:00:57;11.80;99.90
35343;DHT22;21449;48.146;11.594;2022-09-03T03:04:59;11.80;99.90
35343;DHT22;21449;48.146;11.594;2022-09-03T03:09:04;11.70;99.90
35343;DHT22;21449;48.146;11.594;2022-09-03T03:13:06;11.60;99.90
35343;DHT22;21449;48.146;11.594;2022-09-03T03:17:08;11.60;99.90
35343;DHT22;21449;48.146;11.594;2022-09-03T03:21:12;11.70;99.90
35343;DHT22;21449;48.146;11.594;2022-09-03T03:25:17;11.80;99.90
35343;DHT22;21449;48.146;11.594;2022-09-03T03:29:19;12.00;99.90
35343;DHT22;21449;48.146;11.594;2022-09-03T03:33:21;12.00;99.90
35343;DHT22;21449;48.146;11.594;2022-09-03T03:37:24;12.00;99.90
35343;DHT22;21449;48.146;11.594;2022-09-03T03:41:30;11.90;99.90
35343;DHT22;21449;48.146;11.594;2022-09-03T03:45:33;11.80;99.90
35343;DHT22;21449;48.146;11.594;2022-09-03T03:49:35;11.60;99.90
35343;DHT22;21449;48.146;11.594;2022-09-03T03:53:38;11.50;99.90
35343;DHT22;21449;48.146;11.594;2022-09-03T03:57:42;11.50;99.90
35343;DHT22;21449;48.146;11.594;2022-09-03T04:01:44;11.50;99.90
35343;DHT22;21449;48.146;11.594;2022-09-03T04:05:54;11.50;99.90
35343;DHT22;21449;48.146;11.594;2022-09-03T04:09:56;11.50;99.90
35343;DHT22;21449;48.146;11.594;2022-09-03T04:14:01;11.60;99.90
35343;DHT22;21449;48.146;11.594;2022-09-03T04:18:03;11.60;99.90
35343;DHT22;21449;48.146;11.594;2022-09-03T04:22:05;11.60;99.90
35343;DHT22;21449;48.146;11.594;2022-09-03T04:26:09;11.50;99.90
35343;DHT22;21449;48.146;11.594;2022-09-03T04:30:14;11.40;99.90
35343;DHT22;21449;48.146;11.594;2022-09-03T04:34:16;11.40;99.90
35343;DHT22;21449;48.146;11.594;2022-09-03T04:38:18;11.50;99.90
35343;DHT22;21449;48.146;11.594;2022-09-03T04:42:20;11.70;99.90
35343;DHT22;21449;48.146;11.594;2022-09-03T04:46:26;11.80;99.90
35343;DHT22;21449;48.146;11.594;2022-09-03T04:50:31;11.90;99.90
35343;DHT22;21449;48.146;11.594;2022-09-03T04:54:33;12.00;99.90
35343;DHT22;21449;48.146;11.594;2022-09-03T04:58:35;12.10;99.90
35343;DHT22;21449;48.146;11.594;2022-09-03T05:02:41;12.30;99.90
35343;DHT22;21449;48.146;11.594;2022-09-03T05:06:43;12.40;99.90
35343;DHT22;21449;48.146;11.594;2022-09-03T05:10:45;12.50;99.90
35343;DHT22;21449;48.146;11.594;2022-09-03T05:14:47;12.50;99.90
35343;DHT22;21449;48.146;11.594;2022-09-03T05:18:55;12.70;99.90
35343;DHT22;21449;48.146;11.594;2022-09-03T05:23:00;13.00;99.90
35343;DHT22;21449;48.146;11.594;2022-09-03T05:27:03;13.40;99.90
35343;DHT22;21449;48.146;11.594;2022-09-03T05:31:06;14.10;99.90
35343;DHT22;21449;48.146;11.594;2022-09-03T05:35:11;14.70;99.90
35343;DHT22;21449;48.146;11.594;2022-09-03T05:39:13;15.50;99.90
35343;DHT22;21449;48.146;11.594;2022-09-03T05:43:15;15.60;99.90
35343;DHT22;21449;48.146;11.594;2022-09-03T05:47:17;15.40;99.90
35343;DHT22;21449;48.146;11.594;2022-09-03T05:51:21;15.40;99.90
35343;DHT22;21449;48.146;11.594;2022-09-03T05:55:23;15.40;99.90
35343;DHT22;21449;48.146;11.594;2022-09-03T05:59:26;15.30;99.90
35343;DHT22;21449;48.146;11.594;2022-09-03T06:03:28;15.50;99.90
35343;DHT22;21449;48.146;11.594;2022-09-03T06:07:33;15.70;99.90
35343;DHT22;21449;48.146;11.594;2022-09-03T06:11:35;15.80;99.90
35343;DHT22;21449;48.146;11.594;2022-09-03T06:15:39;15.80;99.90
35343;DHT22;21449;48.146;11.594;2022-09-03T06:19:41;15.80;99.90
